sensor_id;sensor_type;location;lat;lon;timestamp;P1;durP1;ratioP1;P2;durP2;ratioP2
32365;SDS011;18837;46.832;16.838;2023-02-28T00:00:32;7.10;;;5.80;;
32365;SDS011;18837;46.832;16.838;2023-02-28T00:02:59;7.70;;;5.20;;
32365;SDS011;18837;46.832;16.838;2023-02-28T00:05:36;7.80;;;5.27;;
32365;SDS011;18837;46.832;16.838;2023-02-28T00:08:02;8.30;;;6.00;;
32365;SDS011;18837;46.832;16.838;2023-02-28T00:10:28;6.43;;;5.07;;
32365;SDS011;18837;46.832;16.838;2023-02-28T00:12:56;7.43;;;5.50;;
32365;SDS011;18837;46.832;16.838;2023-02-28T00:15:25;8.33;;;5.70;;
32365;SDS011;18837;46.832;16.838;2023-02-28T00:17:51;7.57;;;5.63;;
32365;SDS011;18837;46.832;16.838;2023-02-28T00:20:18;8.50;;;6.10;;
32365;SDS011;18837;46.832;16.838;2023-02-28T00:28:26;8.10;;;6.07;;
32365;SDS011;18837;46.832;16.838;2023-02-28T00:30:52;7.53;;;5.33;;
32365;SDS011;18837;46.832;16.838;2023-02-28T00:33:18;8.93;;;6.13;;
32365;SDS011;18837;46.832;16.838;2023-02-28T00:35:43;7.47;;;5.53;;
32365;SDS011;18837;46.832;16.838;2023-02-28T00:38:11;7.47;;;5.63;;
32365;SDS011;18837;46.832;16.838;2023-02-28T00:40:50;6.50;;;5.23;;
32365;SDS011;18837;46.832;16.838;2023-02-28T00:43:19;9.47;;;6.20;;
32365;SDS011;18837;46.832;16.838;2023-02-28T00:45:45;7.03;;;5.40;;
32365;SDS011;18837;46.832;16.838;2023-02-28T00:48:10;7.40;;;5.27;;
32365;SDS011;18837;46.832;16.838;2023-02-28T00:50:36;6.70;;;5.30;;
32365;SDS011;18837;46.832;16.838;2023-02-28T00:53:02;7.77;;;5.50;;
32365;SDS011;18837;46.832;16.838;2023-02-28T00:55:43;7.50;;;5.23;;
32365;SDS011;18837;46.832;16.838;2023-02-28T01:03:45;6.00;;;5.13;;
32365;SDS011;18837;46.832;16.838;2023-02-28T01:06:10;6.17;;;5.53;;
32365;SDS011;18837;46.832;16.838;2023-02-28T01:08:36;7.47;;;5.50;;
32365;SDS011;18837;46.832;16.838;2023-02-28T01:11:09;7.47;;;5.83;;
32365;SDS011;18837;46.832;16.838;2023-02-28T01:13:36;6.43;;;5.23;;
32365;SDS011;18837;46.832;16.838;2023-02-28T01:16:14;7.47;;;5.33;;
32365;SDS011;18837;46.832;16.838;2023-02-28T01:18:40;7.17;;;5.50;;
32365;SDS011;18837;46.832;16.838;2023-02-28T01:21:06;6.57;;;4.90;;
32365;SDS011;18837;46.832;16.838;2023-02-28T01:23:34;7.50;;;5.53;;
32365;SDS011;18837;46.832;16.838;2023-02-28T01:26:06;8.37;;;6.07;;
32365;SDS011;18837;46.832;16.838;2023-02-28T01:28:43;7.73;;;6.23;;
32365;SDS011;18837;46.832;16.838;2023-02-28T01:36:52;7.00;;;5.17;;
32365;SDS011;18837;46.832;16.838;2023-02-28T01:39:18;8.20;;;5.30;;
32365;SDS011;18837;46.832;16.838;2023-02-28T01:41:43;7.57;;;5.53;;
32365;SDS011;18837;46.832;16.838;2023-02-28T01:47:12;7.30;;;5.53;;
32365;SDS011;18837;46.832;16.838;2023-02-28T01:49:54;9.30;;;5.40;;
32365;SDS011;18837;46.832;16.838;2023-02-28T01:52:20;6.77;;;5.23;;
32365;SDS011;18837;46.832;16.838;2023-02-28T01:54:51;6.20;;;5.17;;
32365;SDS011;18837;46.832;16.838;2023-02-28T01:57:20;7.53;;;5.30;;
32365;SDS011;18837;46.832;16.838;2023-02-28T02:00:12;6.73;;;5.53;;
32365;SDS011;18837;46.832;16.838;2023-02-28T02:02:39;7.57;;;5.43;;
32365;SDS011;18837;46.832;16.838;2023-02-28T02:11:05;6.63;;;5.40;;
32365;SDS011;18837;46.832;16.838;2023-02-28T02:19:28;6.30;;;5.10;;
32365;SDS011;18837;46.832;16.838;2023-02-28T02:36:01;7.80;;;5.70;;
32365;SDS011;18837;46.832;16.838;2023-02-28T02:47:15;7.17;;;5.17;;
32365;SDS011;18837;46.832;16.838;2023-02-28T02:49:47;7.87;;;5.57;;
32365;SDS011;18837;46.832;16.838;2023-02-28T02:52:17;6.90;;;5.77;;
32365;SDS011;18837;46.832;16.838;2023-02-28T02:54:47;7.93;;;5.70;;
32365;SDS011;18837;46.832;16.838;2023-02-28T02:57:29;6.93;;;5.83;;
32365;SDS011;18837;46.832;16.838;2023-02-28T03:00:04;7.13;;;5.87;;
32365;SDS011;18837;46.832;16.838;2023-02-28T03:02:33;8.47;;;5.77;;
32365;SDS011;18837;46.832;16.838;2023-02-28T03:05:06;8.20;;;5.70;;
32365;SDS011;18837;46.832;16.838;2023-02-28T03:07:41;6.80;;;5.60;;
32365;SDS011;18837;46.832;16.838;2023-02-28T03:10:30;8.37;;;5.93;;
32365;SDS011;18837;46.832;16.838;2023-02-28T03:13:42;6.23;;;5.37;;
32365;SDS011;18837;46.832;16.838;2023-02-28T03:25:15;6.87;;;5.60;;
32365;SDS011;18837;46.832;16.838;2023-02-28T03:30:23;8.23;;;6.20;;
32365;SDS011;18837;46.832;16.838;2023-02-28T03:36:32;9.30;;;6.43;;
32365;SDS011;18837;46.832;16.838;2023-02-28T03:41:19;8.80;;;6.17;;
32365;SDS011;18837;46.832;16.838;2023-02-28T03:43:58;8.73;;;6.13;;
32365;SDS011;18837;46.832;16.838;2023-02-28T03:46:35;7.37;;;6.10;;
32365;SDS011;18837;46.832;16.838;2023-02-28T03:52:44;7.87;;;6.07;;
32365;SDS011;18837;46.832;16.838;2023-02-28T03:55:26;8.60;;;5.90;;
32365;SDS011;18837;46.832;16.838;2023-02-28T04:00:37;6.20;;;5.43;;
32365;SDS011;18837;46.832;16.838;2023-02-28T04:03:12;8.43;;;6.50;;
32365;SDS011;18837;46.832;16.838;2023-02-28T04:05:45;7.43;;;6.10;;
32365;SDS011;18837;46.832;16.838;2023-02-28T04:08:25;9.67;;;6.40;;
32365;SDS011;18837;46.832;16.838;2023-02-28T04:11:01;7.73;;;6.40;;
32365;SDS011;18837;46.832;16.838;2023-02-28T04:13:33;7.27;;;5.90;;
32365;SDS011;18837;46.832;16.838;2023-02-28T04:15:59;7.93;;;6.07;;
32365;SDS011;18837;46.832;16.838;2023-02-28T04:18:24;8.37;;;6.40;;
32365;SDS011;18837;46.832;16.838;2023-02-28T04:20:50;9.20;;;6.90;;
32365;SDS011;18837;46.832;16.838;2023-02-28T04:29:28;8.03;;;6.10;;
32365;SDS011;18837;46.832;16.838;2023-02-28T04:31:57;7.90;;;6.40;;
32365;SDS011;18837;46.832;16.838;2023-02-28T04:34:25;7.67;;;6.03;;
32365;SDS011;18837;46.832;16.838;2023-02-28T04:36:51;8.20;;;6.70;;
32365;SDS011;18837;46.832;16.838;2023-02-28T04:39:26;7.97;;;5.70;;
32365;SDS011;18837;46.832;16.838;2023-02-28T04:44:42;7.07;;;6.00;;
32365;SDS011;18837;46.832;16.838;2023-02-28T04:47:08;7.90;;;6.10;;
32365;SDS011;18837;46.832;16.838;2023-02-28T04:49:34;9.17;;;6.80;;
32365;SDS011;18837;46.832;16.838;2023-02-28T04:51:59;8.80;;;6.47;;
32365;SDS011;18837;46.832;16.838;2023-02-28T04:54:25;9.43;;;6.90;;
32365;SDS011;18837;46.832;16.838;2023-02-28T04:56:51;7.90;;;6.13;;
32365;SDS011;18837;46.832;16.838;2023-02-28T05:05:10;7.80;;;6.57;;
32365;SDS011;18837;46.832;16.838;2023-02-28T05:07:41;9.47;;;6.67;;
32365;SDS011;18837;46.832;16.838;2023-02-28T05:10:07;8.00;;;6.43;;
32365;SDS011;18837;46.832;16.838;2023-02-28T05:12:33;9.03;;;6.90;;
32365;SDS011;18837;46.832;16.838;2023-02-28T05:14:59;8.17;;;6.27;;
32365;SDS011;18837;46.832;16.838;2023-02-28T05:17:38;8.07;;;6.50;;
32365;SDS011;18837;46.832;16.838;2023-02-28T05:20:04;9.13;;;7.20;;
32365;SDS011;18837;46.832;16.838;2023-02-28T05:22:30;8.30;;;6.73;;
32365;SDS011;18837;46.832;16.838;2023-02-28T05:24:56;8.07;;;6.60;;
32365;SDS011;18837;46.832;16.838;2023-02-28T05:27:21;9.40;;;6.80;;
32365;SDS011;18837;46.832;16.838;2023-02-28T05:29:47;11.60;;;7.60;;
32365;SDS011;18837;46.832;16.838;2023-02-28T05:32:18;8.87;;;6.87;;
32365;SDS011;18837;46.832;16.838;2023-02-28T05:37:47;8.20;;;7.00;;
32365;SDS011;18837;46.832;16.838;2023-02-28T05:40:16;9.70;;;7.20;;
32365;SDS011;18837;46.832;16.838;2023-02-28T05:42:45;8.87;;;7.23;;
32365;SDS011;18837;46.832;16.838;2023-02-28T05:45:11;11.00;;;7.67;;
32365;SDS011;18837;46.832;16.838;2023-02-28T05:47:37;9.53;;;6.73;;
32365;SDS011;18837;46.832;16.838;2023-02-28T05:50:04;9.57;;;6.77;;
32365;SDS011;18837;46.832;16.838;2023-02-28T05:52:30;9.23;;;6.90;;
32365;SDS011;18837;46.832;16.838;2023-02-28T05:54:57;11.03;;;7.40;;
32365;SDS011;18837;46.832;16.838;2023-02-28T05:57:23;9.90;;;7.50;;
32365;SDS011;18837;46.832;16.838;2023-02-28T05:59:50;9.40;;;7.50;;
32365;SDS011;18837;46.832;16.838;2023-02-28T06:02:16;10.53;;;7.57;;
32365;SDS011;18837;46.832;16.838;2023-02-28T06:04:42;10.63;;;7.30;;
32365;SDS011;18837;46.832;16.838;2023-02-28T06:07:09;9.73;;;6.90;;
32365;SDS011;18837;46.832;16.838;2023-02-28T06:09:35;8.70;;;7.33;;
32365;SDS011;18837;46.832;16.838;2023-02-28T06:12:02;8.70;;;7.40;;
32365;SDS011;18837;46.832;16.838;2023-02-28T06:14:31;8.83;;;7.13;;
32365;SDS011;18837;46.832;16.838;2023-02-28T06:16:58;12.10;;;9.10;;
32365;SDS011;18837;46.832;16.838;2023-02-28T06:19:25;8.93;;;7.50;;
32365;SDS011;18837;46.832;16.838;2023-02-28T06:21:51;12.63;;;8.53;;
32365;SDS011;18837;46.832;16.838;2023-02-28T06:24:19;10.03;;;7.40;;
32365;SDS011;18837;46.832;16.838;2023-02-28T06:26:45;9.67;;;7.30;;
32365;SDS011;18837;46.832;16.838;2023-02-28T06:29:11;10.40;;;7.80;;
32365;SDS011;18837;46.832;16.838;2023-02-28T06:31:36;10.03;;;7.23;;
32365;SDS011;18837;46.832;16.838;2023-02-28T06:34:03;9.53;;;7.40;;
32365;SDS011;18837;46.832;16.838;2023-02-28T06:36:30;10.13;;;8.03;;
32365;SDS011;18837;46.832;16.838;2023-02-28T06:38:56;11.10;;;8.33;;
32365;SDS011;18837;46.832;16.838;2023-02-28T06:41:22;9.90;;;7.53;;
32365;SDS011;18837;46.832;16.838;2023-02-28T06:43:50;10.00;;;7.37;;
32365;SDS011;18837;46.832;16.838;2023-02-28T06:46:17;12.47;;;8.20;;
32365;SDS011;18837;46.832;16.838;2023-02-28T06:48:43;10.63;;;8.20;;
32365;SDS011;18837;46.832;16.838;2023-02-28T06:51:28;11.23;;;8.20;;
32365;SDS011;18837;46.832;16.838;2023-02-28T06:53:54;10.50;;;7.47;;
32365;SDS011;18837;46.832;16.838;2023-02-28T06:56:19;11.10;;;8.20;;
32365;SDS011;18837;46.832;16.838;2023-02-28T06:58:46;11.47;;;8.53;;
32365;SDS011;18837;46.832;16.838;2023-02-28T07:01:13;10.67;;;7.87;;
32365;SDS011;18837;46.832;16.838;2023-02-28T07:03:39;11.30;;;7.93;;
32365;SDS011;18837;46.832;16.838;2023-02-28T07:06:05;10.37;;;8.40;;
32365;SDS011;18837;46.832;16.838;2023-02-28T07:11:59;10.70;;;7.73;;
32365;SDS011;18837;46.832;16.838;2023-02-28T07:14:25;11.40;;;8.03;;
32365;SDS011;18837;46.832;16.838;2023-02-28T07:16:51;11.60;;;8.43;;
32365;SDS011;18837;46.832;16.838;2023-02-28T07:19:17;12.23;;;8.57;;
32365;SDS011;18837;46.832;16.838;2023-02-28T07:21:42;11.47;;;7.83;;
32365;SDS011;18837;46.832;16.838;2023-02-28T07:24:08;11.83;;;7.87;;
32365;SDS011;18837;46.832;16.838;2023-02-28T07:26:43;10.70;;;8.83;;
32365;SDS011;18837;46.832;16.838;2023-02-28T07:29:09;11.87;;;8.50;;
32365;SDS011;18837;46.832;16.838;2023-02-28T07:31:35;11.47;;;8.83;;
32365;SDS011;18837;46.832;16.838;2023-02-28T07:34:00;11.40;;;8.33;;
32365;SDS011;18837;46.832;16.838;2023-02-28T07:36:27;15.33;;;9.50;;
32365;SDS011;18837;46.832;16.838;2023-02-28T07:38:53;12.37;;;9.47;;
32365;SDS011;18837;46.832;16.838;2023-02-28T07:41:37;14.77;;;9.37;;
32365;SDS011;18837;46.832;16.838;2023-02-28T07:47:30;12.83;;;8.47;;
32365;SDS011;18837;46.832;16.838;2023-02-28T07:49:57;12.80;;;8.90;;
32365;SDS011;18837;46.832;16.838;2023-02-28T07:52:23;15.97;;;9.30;;
32365;SDS011;18837;46.832;16.838;2023-02-28T07:54:49;14.57;;;10.80;;
32365;SDS011;18837;46.832;16.838;2023-02-28T07:57:15;14.37;;;10.47;;
32365;SDS011;18837;46.832;16.838;2023-02-28T07:59:41;16.20;;;10.87;;
32365;SDS011;18837;46.832;16.838;2023-02-28T08:02:17;13.43;;;9.83;;
32365;SDS011;18837;46.832;16.838;2023-02-28T08:04:44;14.40;;;10.27;;
32365;SDS011;18837;46.832;16.838;2023-02-28T08:07:12;13.23;;;10.10;;
32365;SDS011;18837;46.832;16.838;2023-02-28T08:09:38;16.57;;;10.73;;
32365;SDS011;18837;46.832;16.838;2023-02-28T08:12:05;14.10;;;9.80;;
32365;SDS011;18837;46.832;16.838;2023-02-28T08:14:32;13.70;;;9.27;;
32365;SDS011;18837;46.832;16.838;2023-02-28T08:20:19;14.30;;;9.50;;
32365;SDS011;18837;46.832;16.838;2023-02-28T08:22:45;13.20;;;8.70;;
32365;SDS011;18837;46.832;16.838;2023-02-28T08:25:10;13.80;;;10.33;;
32365;SDS011;18837;46.832;16.838;2023-02-28T08:27:36;12.90;;;9.83;;
32365;SDS011;18837;46.832;16.838;2023-02-28T08:30:02;12.53;;;8.80;;
32365;SDS011;18837;46.832;16.838;2023-02-28T08:32:28;15.40;;;9.70;;
32365;SDS011;18837;46.832;16.838;2023-02-28T08:35:04;11.27;;;8.73;;
32365;SDS011;18837;46.832;16.838;2023-02-28T08:37:34;11.20;;;8.53;;
32365;SDS011;18837;46.832;16.838;2023-02-28T08:40:00;12.00;;;8.70;;
32365;SDS011;18837;46.832;16.838;2023-02-28T08:42:25;11.13;;;8.40;;
32365;SDS011;18837;46.832;16.838;2023-02-28T08:44:51;11.93;;;8.90;;
32365;SDS011;18837;46.832;16.838;2023-02-28T08:47:17;10.80;;;7.70;;
32365;SDS011;18837;46.832;16.838;2023-02-28T08:49:43;13.17;;;8.03;;
32365;SDS011;18837;46.832;16.838;2023-02-28T08:55:44;13.77;;;8.40;;
32365;SDS011;18837;46.832;16.838;2023-02-28T08:58:11;10.67;;;7.77;;
32365;SDS011;18837;46.832;16.838;2023-02-28T09:00:36;10.87;;;7.67;;
32365;SDS011;18837;46.832;16.838;2023-02-28T09:03:02;11.30;;;7.93;;
32365;SDS011;18837;46.832;16.838;2023-02-28T09:05:28;11.00;;;6.80;;
32365;SDS011;18837;46.832;16.838;2023-02-28T09:07:54;10.43;;;7.53;;
32365;SDS011;18837;46.832;16.838;2023-02-28T09:10:35;9.20;;;7.70;;
32365;SDS011;18837;46.832;16.838;2023-02-28T09:13:01;9.63;;;7.40;;
32365;SDS011;18837;46.832;16.838;2023-02-28T09:15:27;10.07;;;7.30;;
32365;SDS011;18837;46.832;16.838;2023-02-28T09:17:53;8.73;;;7.43;;
32365;SDS011;18837;46.832;16.838;2023-02-28T09:20:18;8.77;;;6.83;;
32365;SDS011;18837;46.832;16.838;2023-02-28T09:22:44;8.97;;;7.27;;
32365;SDS011;18837;46.832;16.838;2023-02-28T09:28:14;9.87;;;7.33;;
32365;SDS011;18837;46.832;16.838;2023-02-28T09:30:53;9.87;;;7.50;;
32365;SDS011;18837;46.832;16.838;2023-02-28T09:33:19;9.77;;;6.67;;
32365;SDS011;18837;46.832;16.838;2023-02-28T09:35:49;8.73;;;7.00;;
32365;SDS011;18837;46.832;16.838;2023-02-28T09:38:16;8.47;;;6.33;;
32365;SDS011;18837;46.832;16.838;2023-02-28T09:40:47;8.83;;;6.43;;
32365;SDS011;18837;46.832;16.838;2023-02-28T09:43:15;10.27;;;6.93;;
32365;SDS011;18837;46.832;16.838;2023-02-28T09:46:05;8.50;;;6.67;;
32365;SDS011;18837;46.832;16.838;2023-02-28T09:48:40;9.37;;;7.10;;
32365;SDS011;18837;46.832;16.838;2023-02-28T09:53:39;9.07;;;6.90;;
32365;SDS011;18837;46.832;16.838;2023-02-28T09:56:09;8.97;;;6.93;;
32365;SDS011;18837;46.832;16.838;2023-02-28T09:58:51;7.70;;;6.57;;
32365;SDS011;18837;46.832;16.838;2023-02-28T10:05:05;8.40;;;6.43;;
32365;SDS011;18837;46.832;16.838;2023-02-28T10:12:52;7.53;;;6.67;;
32365;SDS011;18837;46.832;16.838;2023-02-28T10:15:20;8.43;;;6.27;;
32365;SDS011;18837;46.832;16.838;2023-02-28T10:17:50;9.57;;;6.77;;
32365;SDS011;18837;46.832;16.838;2023-02-28T10:20:37;7.93;;;6.00;;
32365;SDS011;18837;46.832;16.838;2023-02-28T10:23:11;9.03;;;6.53;;
32365;SDS011;18837;46.832;16.838;2023-02-28T10:25:38;8.23;;;6.20;;
32365;SDS011;18837;46.832;16.838;2023-02-28T10:28:14;8.67;;;6.63;;
32365;SDS011;18837;46.832;16.838;2023-02-28T10:30:49;8.70;;;6.60;;
32365;SDS011;18837;46.832;16.838;2023-02-28T10:33:38;9.33;;;6.53;;
32365;SDS011;18837;46.832;16.838;2023-02-28T10:50:28;7.67;;;6.10;;
32365;SDS011;18837;46.832;16.838;2023-02-28T10:56:21;6.80;;;5.80;;
32365;SDS011;18837;46.832;16.838;2023-02-28T10:58:56;7.90;;;6.50;;
32365;SDS011;18837;46.832;16.838;2023-02-28T11:03:55;8.17;;;6.33;;
32365;SDS011;18837;46.832;16.838;2023-02-28T11:06:26;7.63;;;5.93;;
32365;SDS011;18837;46.832;16.838;2023-02-28T11:15:24;10.10;;;6.63;;
32365;SDS011;18837;46.832;16.838;2023-02-28T11:17:55;9.30;;;6.50;;
32365;SDS011;18837;46.832;16.838;2023-02-28T11:20:25;8.10;;;6.57;;
32365;SDS011;18837;46.832;16.838;2023-02-28T11:22:53;8.00;;;6.80;;
32365;SDS011;18837;46.832;16.838;2023-02-28T11:25:21;8.30;;;6.67;;
32365;SDS011;18837;46.832;16.838;2023-02-28T11:28:08;8.10;;;6.57;;
32365;SDS011;18837;46.832;16.838;2023-02-28T11:36:19;7.50;;;6.47;;
32365;SDS011;18837;46.832;16.838;2023-02-28T11:38:50;7.73;;;6.67;;
32365;SDS011;18837;46.832;16.838;2023-02-28T11:41:26;9.43;;;7.23;;
32365;SDS011;18837;46.832;16.838;2023-02-28T11:53:38;8.07;;;6.47;;
32365;SDS011;18837;46.832;16.838;2023-02-28T12:07:09;8.17;;;5.93;;
32365;SDS011;18837;46.832;16.838;2023-02-28T12:27:32;8.40;;;6.70;;
32365;SDS011;18837;46.832;16.838;2023-02-28T12:30:03;8.20;;;6.70;;
32365;SDS011;18837;46.832;16.838;2023-02-28T12:32:55;9.67;;;6.30;;
32365;SDS011;18837;46.832;16.838;2023-02-28T12:35:38;7.83;;;6.23;;
32365;SDS011;18837;46.832;16.838;2023-02-28T12:38:23;9.40;;;6.60;;
32365;SDS011;18837;46.832;16.838;2023-02-28T12:43:32;7.27;;;6.50;;
32365;SDS011;18837;46.832;16.838;2023-02-28T12:46:09;8.70;;;6.53;;
32365;SDS011;18837;46.832;16.838;2023-02-28T12:48:51;10.87;;;6.77;;
32365;SDS011;18837;46.832;16.838;2023-02-28T12:51:21;8.37;;;7.03;;
32365;SDS011;18837;46.832;16.838;2023-02-28T12:57:24;9.00;;;6.70;;
32365;SDS011;18837;46.832;16.838;2023-02-28T13:00:10;10.20;;;6.93;;
32365;SDS011;18837;46.832;16.838;2023-02-28T13:11:28;8.20;;;6.70;;
32365;SDS011;18837;46.832;16.838;2023-02-28T13:14:06;8.23;;;6.67;;
32365;SDS011;18837;46.832;16.838;2023-02-28T13:17:03;10.00;;;7.33;;
32365;SDS011;18837;46.832;16.838;2023-02-28T13:22:20;10.33;;;6.80;;
32365;SDS011;18837;46.832;16.838;2023-02-28T13:27:50;8.53;;;7.30;;
32365;SDS011;18837;46.832;16.838;2023-02-28T13:33:28;9.27;;;7.07;;
32365;SDS011;18837;46.832;16.838;2023-02-28T13:36:06;7.43;;;6.70;;
32365;SDS011;18837;46.832;16.838;2023-02-28T13:38:43;8.13;;;6.90;;
32365;SDS011;18837;46.832;16.838;2023-02-28T13:49:23;9.10;;;7.00;;
32365;SDS011;18837;46.832;16.838;2023-02-28T14:11:29;7.63;;;6.53;;
32365;SDS011;18837;46.832;16.838;2023-02-28T14:13:57;7.70;;;6.73;;
32365;SDS011;18837;46.832;16.838;2023-02-28T14:16:24;9.00;;;6.83;;
32365;SDS011;18837;46.832;16.838;2023-02-28T14:18:59;8.10;;;6.80;;
32365;SDS011;18837;46.832;16.838;2023-02-28T14:21:48;8.70;;;6.70;;
32365;SDS011;18837;46.832;16.838;2023-02-28T14:42:29;9.60;;;6.87;;
32365;SDS011;18837;46.832;16.838;2023-02-28T14:45:21;10.13;;;7.37;;
32365;SDS011;18837;46.832;16.838;2023-02-28T14:47:51;7.53;;;6.70;;
32365;SDS011;18837;46.832;16.838;2023-02-28T14:50:21;9.77;;;7.17;;
32365;SDS011;18837;46.832;16.838;2023-02-28T14:52:55;10.87;;;6.77;;
32365;SDS011;18837;46.832;16.838;2023-02-28T14:58:18;8.40;;;6.93;;
32365;SDS011;18837;46.832;16.838;2023-02-28T15:00:51;9.93;;;7.83;;
32365;SDS011;18837;46.832;16.838;2023-02-28T15:03:32;11.70;;;7.67;;
32365;SDS011;18837;46.832;16.838;2023-02-28T15:06:01;9.10;;;7.47;;
32365;SDS011;18837;46.832;16.838;2023-02-28T15:08:29;9.43;;;7.63;;
32365;SDS011;18837;46.832;16.838;2023-02-28T15:17:21;10.43;;;7.70;;
32365;SDS011;18837;46.832;16.838;2023-02-28T15:19:50;10.33;;;7.67;;
32365;SDS011;18837;46.832;16.838;2023-02-28T15:22:19;7.90;;;6.90;;
32365;SDS011;18837;46.832;16.838;2023-02-28T15:24:52;8.50;;;7.60;;
32365;SDS011;18837;46.832;16.838;2023-02-28T15:27:20;10.47;;;7.60;;
32365;SDS011;18837;46.832;16.838;2023-02-28T15:32:41;10.07;;;8.07;;
32365;SDS011;18837;46.832;16.838;2023-02-28T15:40:42;8.57;;;7.13;;
32365;SDS011;18837;46.832;16.838;2023-02-28T15:43:28;9.70;;;8.03;;
32365;SDS011;18837;46.832;16.838;2023-02-28T15:52:15;9.83;;;8.33;;
32365;SDS011;18837;46.832;16.838;2023-02-28T15:54:49;9.37;;;7.27;;
32365;SDS011;18837;46.832;16.838;2023-02-28T15:57:17;8.87;;;7.33;;
32365;SDS011;18837;46.832;16.838;2023-02-28T15:59:51;11.43;;;8.60;;
32365;SDS011;18837;46.832;16.838;2023-02-28T16:02:21;10.20;;;7.70;;
32365;SDS011;18837;46.832;16.838;2023-02-28T16:07:58;9.90;;;8.10;;
32365;SDS011;18837;46.832;16.838;2023-02-28T16:10:26;9.67;;;8.07;;
32365;SDS011;18837;46.832;16.838;2023-02-28T16:12:54;9.27;;;8.23;;
32365;SDS011;18837;46.832;16.838;2023-02-28T16:15:22;10.57;;;8.60;;
32365;SDS011;18837;46.832;16.838;2023-02-28T16:17:51;9.00;;;8.10;;
32365;SDS011;18837;46.832;16.838;2023-02-28T16:26:06;12.27;;;8.23;;
32365;SDS011;18837;46.832;16.838;2023-02-28T16:28:36;12.00;;;8.60;;
32365;SDS011;18837;46.832;16.838;2023-02-28T16:31:04;11.03;;;8.23;;
32365;SDS011;18837;46.832;16.838;2023-02-28T16:33:32;9.00;;;7.63;;
32365;SDS011;18837;46.832;16.838;2023-02-28T16:35:58;9.57;;;8.50;;
32365;SDS011;18837;46.832;16.838;2023-02-28T16:41:17;11.73;;;8.03;;
32365;SDS011;18837;46.832;16.838;2023-02-28T16:43:47;12.50;;;7.70;;
32365;SDS011;18837;46.832;16.838;2023-02-28T16:46:14;10.17;;;8.40;;
32365;SDS011;18837;46.832;16.838;2023-02-28T16:48:41;8.33;;;7.33;;
32365;SDS011;18837;46.832;16.838;2023-02-28T16:51:11;10.47;;;7.83;;
32365;SDS011;18837;46.832;16.838;2023-02-28T16:53:37;10.93;;;8.30;;
32365;SDS011;18837;46.832;16.838;2023-02-28T17:02:08;10.10;;;7.70;;
32365;SDS011;18837;46.832;16.838;2023-02-28T17:04:39;9.37;;;7.70;;
32365;SDS011;18837;46.832;16.838;2023-02-28T17:07:04;8.83;;;7.80;;
32365;SDS011;18837;46.832;16.838;2023-02-28T17:09:33;8.97;;;7.27;;
32365;SDS011;18837;46.832;16.838;2023-02-28T17:11:59;14.37;;;9.07;;
32365;SDS011;18837;46.832;16.838;2023-02-28T17:14:34;11.53;;;7.80;;
32365;SDS011;18837;46.832;16.838;2023-02-28T17:17:00;14.57;;;8.50;;
32365;SDS011;18837;46.832;16.838;2023-02-28T17:19:26;10.70;;;8.33;;
32365;SDS011;18837;46.832;16.838;2023-02-28T17:21:53;11.13;;;7.83;;
32365;SDS011;18837;46.832;16.838;2023-02-28T17:24:18;10.77;;;8.40;;
32365;SDS011;18837;46.832;16.838;2023-02-28T17:26:44;9.50;;;7.57;;
32365;SDS011;18837;46.832;16.838;2023-02-28T17:35:13;9.53;;;7.63;;
32365;SDS011;18837;46.832;16.838;2023-02-28T17:37:40;10.87;;;8.13;;
32365;SDS011;18837;46.832;16.838;2023-02-28T17:40:06;9.67;;;7.50;;
32365;SDS011;18837;46.832;16.838;2023-02-28T17:42:43;10.80;;;7.50;;
32365;SDS011;18837;46.832;16.838;2023-02-28T17:45:09;11.87;;;7.97;;
32365;SDS011;18837;46.832;16.838;2023-02-28T17:50:21;10.57;;;8.33;;
32365;SDS011;18837;46.832;16.838;2023-02-28T17:52:47;13.73;;;8.33;;
32365;SDS011;18837;46.832;16.838;2023-02-28T17:55:15;11.50;;;8.77;;
32365;SDS011;18837;46.832;16.838;2023-02-28T17:57:41;10.97;;;8.40;;
32365;SDS011;18837;46.832;16.838;2023-02-28T18:00:07;13.87;;;8.70;;
32365;SDS011;18837;46.832;16.838;2023-02-28T18:02:37;11.20;;;8.63;;
32365;SDS011;18837;46.832;16.838;2023-02-28T18:05:15;12.23;;;8.30;;
32365;SDS011;18837;46.832;16.838;2023-02-28T18:10:28;11.60;;;8.63;;
32365;SDS011;18837;46.832;16.838;2023-02-28T18:12:58;13.37;;;8.80;;
32365;SDS011;18837;46.832;16.838;2023-02-28T18:15:23;11.83;;;9.17;;
32365;SDS011;18837;46.832;16.838;2023-02-28T18:17:49;12.13;;;8.93;;
32365;SDS011;18837;46.832;16.838;2023-02-28T18:20:15;11.37;;;8.97;;
32365;SDS011;18837;46.832;16.838;2023-02-28T18:22:56;11.40;;;8.57;;
32365;SDS011;18837;46.832;16.838;2023-02-28T18:25:22;11.87;;;9.17;;
32365;SDS011;18837;46.832;16.838;2023-02-28T18:27:48;12.27;;;9.33;;
32365;SDS011;18837;46.832;16.838;2023-02-28T18:30:23;11.37;;;9.10;;
32365;SDS011;18837;46.832;16.838;2023-02-28T18:32:56;12.30;;;9.20;;
32365;SDS011;18837;46.832;16.838;2023-02-28T18:35:26;12.83;;;9.60;;
32365;SDS011;18837;46.832;16.838;2023-02-28T18:44:22;12.03;;;9.10;;
32365;SDS011;18837;46.832;16.838;2023-02-28T18:46:48;11.27;;;8.70;;
32365;SDS011;18837;46.832;16.838;2023-02-28T18:49:14;11.27;;;9.53;;
32365;SDS011;18837;46.832;16.838;2023-02-28T18:51:41;15.40;;;9.90;;
32365;SDS011;18837;46.832;16.838;2023-02-28T18:54:09;12.20;;;9.07;;
32365;SDS011;18837;46.832;16.838;2023-02-28T18:56:36;11.87;;;9.70;;
32365;SDS011;18837;46.832;16.838;2023-02-28T18:59:03;12.17;;;9.60;;
32365;SDS011;18837;46.832;16.838;2023-02-28T19:01:29;11.70;;;9.23;;
32365;SDS011;18837;46.832;16.838;2023-02-28T19:03:56;12.90;;;9.47;;
32365;SDS011;18837;46.832;16.838;2023-02-28T19:06:27;11.60;;;8.97;;
32365;SDS011;18837;46.832;16.838;2023-02-28T19:08:54;13.47;;;10.33;;
32365;SDS011;18837;46.832;16.838;2023-02-28T19:11:20;15.10;;;10.20;;
32365;SDS011;18837;46.832;16.838;2023-02-28T19:17:10;16.50;;;10.13;;
32365;SDS011;18837;46.832;16.838;2023-02-28T19:19:36;15.77;;;11.83;;
32365;SDS011;18837;46.832;16.838;2023-02-28T19:22:01;15.30;;;11.10;;
32365;SDS011;18837;46.832;16.838;2023-02-28T19:24:27;18.43;;;11.00;;
32365;SDS011;18837;46.832;16.838;2023-02-28T19:26:53;18.23;;;11.37;;
32365;SDS011;18837;46.832;16.838;2023-02-28T19:29:18;16.93;;;11.93;;
32365;SDS011;18837;46.832;16.838;2023-02-28T19:34:32;19.20;;;11.47;;
32365;SDS011;18837;46.832;16.838;2023-02-28T19:36:57;15.77;;;11.53;;
32365;SDS011;18837;46.832;16.838;2023-02-28T19:39:23;16.83;;;11.43;;
32365;SDS011;18837;46.832;16.838;2023-02-28T19:41:49;15.83;;;10.83;;
32365;SDS011;18837;46.832;16.838;2023-02-28T19:44:15;17.40;;;11.80;;
32365;SDS011;18837;46.832;16.838;2023-02-28T19:52:58;18.10;;;12.60;;
32365;SDS011;18837;46.832;16.838;2023-02-28T19:55:26;16.97;;;11.70;;
32365;SDS011;18837;46.832;16.838;2023-02-28T19:57:52;18.00;;;12.93;;
32365;SDS011;18837;46.832;16.838;2023-02-28T20:00:18;45.60;;;27.83;;
32365;SDS011;18837;46.832;16.838;2023-02-28T20:02:44;48.67;;;32.03;;
32365;SDS011;18837;46.832;16.838;2023-02-28T20:05:09;38.03;;;25.57;;
32365;SDS011;18837;46.832;16.838;2023-02-28T20:07:50;28.57;;;20.07;;
32365;SDS011;18837;46.832;16.838;2023-02-28T20:10:16;32.00;;;21.30;;
32365;SDS011;18837;46.832;16.838;2023-02-28T20:12:42;27.80;;;21.10;;
32365;SDS011;18837;46.832;16.838;2023-02-28T20:15:08;30.53;;;20.93;;
32365;SDS011;18837;46.832;16.838;2023-02-28T20:17:34;30.60;;;21.20;;
32365;SDS011;18837;46.832;16.838;2023-02-28T20:20:00;28.50;;;19.40;;